Time;durP1;ratioP1;P1;durP2;ratioP2;P2;SDS_P1;SDS_P2;PMS_P1;PMS_P2;Temp;Humidity;BMP_temperature;BMP_pressure;BME280_temperature;BME280_humidity;BME280_pressure;Samples;Min_cycle;Max_cycle;Signal;HPM_P1;HPM_P2
2023/02/05 00:01:49;;;;;;;27.70;13.80;;;4.50;84.90;;;;;;5011356;28;20300;-73
2023/02/05 00:04:14;;;;;;;27.67;12.33;;;4.50;84.90;;;;;;5013773;28;20228;-71
2023/02/05 00:06:40;;;;;;;23.30;12.30;;;4.50;84.90;;;;;;5010020;28;20629;-71
2023/02/05 00:09:05;;;;;;;30.77;12.23;;;4.50;84.60;;;;;;5019584;28;20205;-71
2023/02/05 00:11:31;;;;;;;23.83;12.27;;;4.50;84.60;;;;;;5006467;28;20872;-72
2023/02/05 00:13:56;;;;;;;24.90;12.20;;;4.60;84.60;;;;;;5014559;28;20334;-72
2023/02/05 00:16:23;;;;;;;19.67;11.07;;;4.50;84.70;;;;;;5010553;28;20636;-71
2023/02/05 00:18:49;;;;;;;33.53;12.13;;;4.50;84.70;;;;;;5009595;28;20186;-71
2023/02/05 00:21:16;;;;;;;19.50;12.20;;;4.50;84.70;;;;;;5007667;28;20495;-72
2023/02/05 00:23:42;;;;;;;28.40;11.80;;;4.50;84.90;;;;;;5008168;28;20814;-72
2023/02/05 00:26:09;;;;;;;25.80;11.30;;;4.50;84.90;;;;;;5015403;28;20432;-73
2023/02/05 00:28:35;;;;;;;26.83;11.40;;;4.50;84.90;;;;;;5009697;28;20637;-76
2023/02/05 00:31:11;;;;;;;23.67;10.73;;;4.50;85.00;;;;;;5008412;28;20475;-76
2023/02/05 00:33:37;;;;;;;21.30;10.37;;;4.60;85.20;;;;;;5012522;28;20427;-75
2023/02/05 00:36:03;;;;;;;23.27;10.20;;;4.60;85.00;;;;;;5016362;28;20428;-75
2023/02/05 00:38:29;;;;;;;20.93;10.63;;;4.70;84.90;;;;;;5015200;28;20515;-76
2023/02/05 00:40:55;;;;;;;19.10;10.70;;;4.70;84.40;;;;;;5013161;28;20428;-76
2023/02/05 00:43:20;;;;;;;19.70;9.77;;;4.60;84.40;;;;;;5010335;28;20535;-76
2023/02/05 00:45:46;;;;;;;16.27;11.00;;;4.70;84.60;;;;;;5010451;28;20263;-76
2023/02/05 00:48:12;;;;;;;21.23;11.20;;;4.70;84.40;;;;;;5012398;28;20216;-76
2023/02/05 00:50:37;;;;;;;25.70;9.30;;;4.60;84.60;;;;;;5016162;28;20637;-75
2023/02/05 00:53:03;;;;;;;18.30;10.30;;;4.70;84.70;;;;;;5014591;28;20186;-76
2023/02/05 00:55:29;;;;;;;17.20;9.97;;;4.60;84.60;;;;;;5018522;28;20177;-75
2023/02/05 00:57:55;;;;;;;23.90;11.07;;;4.50;84.60;;;;;;5014408;28;20255;-74
2023/02/05 01:00:21;;;;;;;21.13;10.70;;;4.50;84.70;;;;;;5020403;28;20910;-74
2023/02/05 01:02:47;;;;;;;18.53;9.73;;;4.50;84.90;;;;;;5012292;28;20244;-75
2023/02/05 01:05:13;;;;;;;21.97;10.97;;;4.50;85.20;;;;;;5010875;28;20520;-75
2023/02/05 01:07:40;;;;;;;28.57;11.17;;;4.50;85.30;;;;;;5014029;28;20568;-74
2023/02/05 01:10:06;;;;;;;25.47;11.60;;;4.60;85.30;;;;;;5014838;28;20432;-75
2023/02/05 01:12:34;;;;;;;26.20;9.87;;;4.60;85.20;;;;;;5008935;28;20514;-75
2023/02/05 01:15:01;;;;;;;20.13;9.37;;;4.60;85.20;;;;;;5011856;28;20517;-75
2023/02/05 01:17:26;;;;;;;21.57;9.10;;;4.50;85.20;;;;;;5011467;28;20425;-76
2023/02/05 01:19:52;;;;;;;22.73;9.57;;;4.50;85.20;;;;;;5013511;28;20425;-76
2023/02/05 01:22:17;;;;;;;23.93;11.17;;;4.50;85.20;;;;;;5009705;28;20213;-75
2023/02/05 01:24:43;;;;;;;29.43;11.60;;;4.50;85.00;;;;;;5020156;28;20190;-76
2023/02/05 01:27:09;;;;;;;26.73;12.00;;;4.50;85.20;;;;;;5017316;28;20213;-76
2023/02/05 01:29:34;;;;;;;20.47;10.30;;;4.50;85.30;;;;;;5015648;28;20723;-75
2023/02/05 01:32:00;;;;;;;28.17;12.30;;;4.50;85.30;;;;;;5014879;28;20233;-75
2023/02/05 01:34:25;;;;;;;22.03;10.20;;;4.60;85.30;;;;;;5022448;28;20189;-75
2023/02/05 01:36:51;;;;;;;20.70;10.63;;;4.50;85.20;;;;;;5016805;28;20188;-76
2023/02/05 01:39:16;;;;;;;21.47;10.33;;;4.50;85.20;;;;;;5022355;28;20197;-75
2023/02/05 01:41:44;;;;;;;19.70;10.47;;;4.50;85.30;;;;;;5014215;28;20221;-76
2023/02/05 01:44:17;;;;;;;26.33;11.20;;;4.50;85.30;;;;;;5014714;28;20186;-76
2023/02/05 01:46:44;;;;;;;18.40;9.90;;;4.60;85.30;;;;;;5018233;28;20429;-75
2023/02/05 01:49:16;;;;;;;23.70;11.37;;;4.60;85.00;;;;;;5017348;28;20522;-76
2023/02/05 01:51:44;;;;;;;21.73;10.40;;;4.50;85.00;;;;;;5014287;28;20517;-76
2023/02/05 01:54:09;;;;;;;15.33;10.40;;;4.50;85.20;;;;;;5014747;28;20429;-76
2023/02/05 01:56:45;;;;;;;24.00;9.60;;;4.60;85.20;;;;;;5017204;28;20443;-75
2023/02/05 01:59:15;;;;;;;19.70;8.57;;;4.60;85.00;;;;;;5014912;28;20844;-76
2023/02/05 02:01:42;;;;;;;14.07;8.50;;;4.60;84.90;;;;;;5014490;28;20472;-75
2023/02/05 02:04:09;;;;;;;23.67;10.53;;;4.60;85.00;;;;;;5015708;28;21098;-76
2023/02/05 02:06:36;;;;;;;19.40;7.90;;;4.70;84.90;;;;;;5019239;28;20497;-75
2023/02/05 02:09:05;;;;;;;10.80;7.37;;;4.70;84.70;;;;;;5020231;28;20475;-76
2023/02/05 02:11:36;;;;;;;14.80;7.63;;;4.70;84.40;;;;;;5008493;28;20522;-76
2023/02/05 02:14:05;;;;;;;16.73;9.40;;;4.80;83.80;;;;;;5015343;28;20432;-75
2023/02/05 02:16:33;;;;;;;21.63;8.40;;;4.80;83.70;;;;;;5024019;28;20427;-76
2023/02/05 02:19:00;;;;;;;16.27;8.30;;;4.70;83.60;;;;;;5025173;28;20451;-76
2023/02/05 02:21:36;;;;;;;22.33;9.20;;;4.70;83.60;;;;;;5028360;28;20554;-76
2023/02/05 02:24:23;;;;;;;18.70;8.60;;;4.70;83.70;;;;;;5016853;28;20420;-75
2023/02/05 02:26:55;;;;;;;23.07;8.53;;;4.70;83.70;;;;;;5006613;28;20456;-74
2023/02/05 02:29:43;;;;;;;16.27;8.60;;;4.60;83.80;;;;;;5019756;28;20836;-76
2023/02/05 02:32:22;;;;;;;17.50;7.60;;;4.60;83.80;;;;;;4990252;28;20805;-76
2023/02/05 02:34:54;;;;;;;18.43;8.90;;;4.50;83.80;;;;;;5008544;28;20475;-76
2023/02/05 02:37:35;;;;;;;15.17;7.73;;;4.50;84.00;;;;;;5011935;28;20439;-75
2023/02/05 02:40:12;;;;;;;16.90;7.90;;;4.50;84.10;;;;;;5016908;28;20497;-74
2023/02/05 02:42:44;;;;;;;21.80;8.50;;;4.50;84.30;;;;;;5015323;28;20468;-75
2023/02/05 02:45:13;;;;;;;14.93;8.90;;;4.50;84.40;;;;;;5022073;28;20514;-75
2023/02/05 02:47:53;;;;;;;18.90;8.80;;;4.60;84.40;;;;;;5012955;28;20792;-76
2023/02/05 02:50:25;;;;;;;15.83;8.57;;;4.60;84.30;;;;;;5016759;28;20792;-75
2023/02/05 02:52:53;;;;;;;16.70;8.00;;;4.50;84.10;;;;;;5012643;28;21009;-76
2023/02/05 02:55:21;;;;;;;20.07;8.67;;;4.50;84.30;;;;;;5018501;28;20531;-75
2023/02/05 02:57:49;;;;;;;14.07;8.40;;;4.50;84.40;;;;;;5013268;28;20444;-76
2023/02/05 03:00:19;;;;;;;22.60;8.37;;;4.40;84.60;;;;;;5021238;28;20827;-76
2023/02/05 03:02:47;;;;;;;16.40;7.90;;;4.40;84.70;;;;;;5011711;28;20476;-76
2023/02/05 03:05:20;;;;;;;19.67;9.00;;;4.50;84.90;;;;;;5018112;28;20436;-75
2023/02/05 03:07:55;;;;;;;21.10;7.73;;;4.50;84.90;;;;;;5015311;28;20798;-75
2023/02/05 03:10:34;;;;;;;17.20;8.63;;;4.40;84.60;;;;;;5016165;28;20470;-76
2023/02/05 03:13:00;;;;;;;17.27;9.03;;;4.50;84.70;;;;;;5013381;28;20924;-75
2023/02/05 03:15:26;;;;;;;13.93;8.97;;;4.50;84.60;;;;;;5016608;28;20433;-75
2023/02/05 03:17:54;;;;;;;13.90;8.43;;;4.50;84.70;;;;;;5013392;28;20699;-76
2023/02/05 03:20:30;;;;;;;14.17;8.03;;;4.50;84.40;;;;;;5030957;28;20192;-76
2023/02/05 03:22:56;;;;;;;17.73;8.30;;;4.50;84.40;;;;;;5032395;28;20488;-75
2023/02/05 03:25:25;;;;;;;13.57;8.87;;;4.40;84.40;;;;;;5028381;28;20440;-74
2023/02/05 03:27:52;;;;;;;15.90;8.80;;;4.40;84.70;;;;;;5014986;28;20315;-74
2023/02/05 03:30:18;;;;;;;16.87;8.80;;;4.50;84.70;;;;;;5024163;28;20850;-74
2023/02/05 03:33:06;;;;;;;15.53;9.10;;;4.40;84.70;;;;;;5022833;28;20464;-74
2023/02/05 03:35:46;;;;;;;22.73;9.87;;;4.40;85.00;;;;;;5026353;28;20755;-75
2023/02/05 03:38:43;;;;;;;16.63;8.83;;;4.40;85.00;;;;;;5019856;28;20519;-75
2023/02/05 03:41:54;;;;;;;16.70;9.17;;;4.50;84.90;;;;;;5021785;28;20498;-76
2023/02/05 03:44:34;;;;;;;23.20;9.40;;;4.40;84.60;;;;;;5013075;28;20505;-76
2023/02/05 03:47:02;;;;;;;14.70;8.67;;;4.30;84.60;;;;;;5018797;28;20440;-75
2023/02/05 03:49:39;;;;;;;16.90;9.57;;;4.20;85.00;;;;;;5023298;28;20552;-75
2023/02/05 03:52:17;;;;;;;15.20;8.63;;;4.10;85.50;;;;;;5023943;28;20515;-75
2023/02/05 03:54:47;;;;;;;18.40;9.03;;;4.00;85.60;;;;;;5014834;28;20505;-78
2023/02/05 03:57:36;;;;;;;22.33;10.17;;;4.00;86.00;;;;;;5012493;28;20461;-76
2023/02/05 04:00:03;;;;;;;18.47;9.43;;;3.90;86.50;;;;;;5013709;28;20497;-75
2023/02/05 04:02:28;;;;;;;15.37;9.07;;;3.90;86.60;;;;;;5008769;28;20960;-76
2023/02/05 04:04:54;;;;;;;17.60;9.57;;;3.90;86.90;;;;;;5016862;28;20423;-73
2023/02/05 04:07:20;;;;;;;18.67;8.60;;;3.90;87.10;;;;;;5011498;28;20201;-76
2023/02/05 04:09:45;;;;;;;19.27;9.20;;;3.80;87.10;;;;;;5012794;28;20292;-75
2023/02/05 04:12:11;;;;;;;16.03;8.90;;;3.80;87.10;;;;;;5009342;28;20210;-74
2023/02/05 04:14:36;;;;;;;15.97;8.50;;;3.80;87.10;;;;;;5014168;28;20177;-76
2023/02/05 04:17:02;;;;;;;14.80;8.97;;;3.70;87.10;;;;;;5011638;28;20244;-74
2023/02/05 04:19:27;;;;;;;16.10;9.50;;;3.70;87.40;;;;;;5011840;28;20696;-75
2023/02/05 04:21:53;;;;;;;17.50;9.07;;;3.70;87.60;;;;;;5009477;28;20229;-75
2023/02/05 04:24:19;;;;;;;15.00;8.90;;;3.60;87.60;;;;;;5013245;28;20197;-75
2023/02/05 04:26:44;;;;;;;18.90;9.53;;;3.50;87.70;;;;;;5014901;28;20296;-75
2023/02/05 04:29:10;;;;;;;18.80;8.43;;;3.50;87.80;;;;;;5016930;28;20236;-75
2023/02/05 04:31:36;;;;;;;17.97;9.37;;;3.50;88.10;;;;;;5009020;28;20217;-76
2023/02/05 04:34:01;;;;;;;18.97;9.37;;;3.50;88.10;;;;;;5014851;28;20633;-75
2023/02/05 04:36:27;;;;;;;12.80;7.50;;;3.40;88.30;;;;;;5011131;28;20449;-75
2023/02/05 04:38:52;;;;;;;17.27;8.30;;;3.40;88.40;;;;;;5011597;28;20563;-75
2023/02/05 04:41:18;;;;;;;16.27;8.30;;;3.40;88.70;;;;;;5008764;28;20283;-76
2023/02/05 04:43:44;;;;;;;13.80;8.30;;;3.30;88.60;;;;;;5015141;28;20213;-76
2023/02/05 04:46:10;;;;;;;20.43;8.80;;;3.30;88.70;;;;;;5012786;28;20192;-76
2023/02/05 04:48:37;;;;;;;15.53;8.50;;;3.30;88.90;;;;;;5013669;28;20262;-74
2023/02/05 04:51:08;;;;;;;15.97;7.93;;;3.20;89.30;;;;;;5011888;28;20931;-75
2023/02/05 04:53:34;;;;;;;16.97;7.97;;;3.20;89.50;;;;;;5011812;28;20427;-76
2023/02/05 04:56:11;;;;;;;19.30;8.37;;;3.20;89.50;;;;;;5017624;28;20436;-75
2023/02/05 04:58:37;;;;;;;17.97;8.50;;;3.20;89.60;;;;;;5010768;28;20212;-76
2023/02/05 05:01:04;;;;;;;17.53;7.60;;;3.10;89.70;;;;;;5011447;28;20452;-76
2023/02/05 05:03:30;;;;;;;20.17;8.43;;;3.20;89.70;;;;;;5011356;28;20432;-75
2023/02/05 05:05:55;;;;;;;15.87;8.70;;;3.20;89.70;;;;;;5012825;28;20424;-77
2023/02/05 05:08:21;;;;;;;20.03;9.20;;;3.20;89.70;;;;;;5018482;28;20216;-76
2023/02/05 05:10:47;;;;;;;22.47;7.60;;;3.10;89.70;;;;;;5014596;28;20189;-76
2023/02/05 05:13:12;;;;;;;16.80;8.07;;;3.10;89.70;;;;;;5007718;28;20294;-76
2023/02/05 05:15:39;;;;;;;16.60;7.10;;;3.20;89.90;;;;;;5011952;28;20214;-77
2023/02/05 05:18:04;;;;;;;19.93;8.27;;;3.20;89.70;;;;;;5012478;28;20269;-77
2023/02/05 05:20:30;;;;;;;16.67;7.80;;;3.20;89.50;;;;;;5018445;28;21023;-75
2023/02/05 05:22:55;;;;;;;14.73;6.70;;;3.20;89.50;;;;;;5017096;28;20216;-75
2023/02/05 05:25:21;;;;;;;19.27;7.73;;;3.30;89.50;;;;;;5012935;28;20592;-76
2023/02/05 05:27:47;;;;;;;19.77;7.80;;;3.30;89.30;;;;;;5013484;28;20209;-75
2023/02/05 05:30:13;;;;;;;15.77;6.97;;;3.40;89.00;;;;;;5026551;28;20448;-74
2023/02/05 05:32:39;;;;;;;16.10;7.10;;;3.50;88.90;;;;;;5026027;28;20197;-75
2023/02/05 05:35:05;;;;;;;13.20;7.00;;;3.40;88.60;;;;;;5031183;28;20219;-76
2023/02/05 05:37:30;;;;;;;11.63;7.50;;;3.40;88.30;;;;;;5028264;28;20252;-75
2023/02/05 05:45:24;;;;;;;17.30;7.70;;;3.20;88.70;;;;;;5028295;28;20423;-75
2023/02/05 05:47:50;;;;;;;15.60;7.80;;;3.30;89.20;;;;;;5024272;28;20781;-75
2023/02/05 05:50:16;;;;;;;14.37;7.63;;;3.40;89.00;;;;;;5019959;28;20198;-76
2023/02/05 05:52:41;;;;;;;15.60;8.07;;;3.50;89.00;;;;;;5010730;28;20212;-75
2023/02/05 05:55:07;;;;;;;16.90;7.30;;;3.50;89.00;;;;;;5011546;28;20193;-77
2023/02/05 05:57:32;;;;;;;14.03;7.60;;;3.60;89.00;;;;;;5018214;28;20297;-76
2023/02/05 05:59:58;;;;;;;24.47;9.53;;;3.70;88.70;;;;;;5023064;28;20181;-77
2023/02/05 06:02:24;;;;;;;14.20;7.30;;;3.70;88.40;;;;;;5010291;28;20206;-75
2023/02/05 06:04:49;;;;;;;18.60;6.30;;;3.80;88.00;;;;;;5018717;28;20218;-77
2023/02/05 06:07:15;;;;;;;13.20;7.20;;;3.80;87.80;;;;;;5012764;28;20202;-77
2023/02/05 06:09:40;;;;;;;15.77;8.10;;;3.80;87.80;;;;;;5026634;28;20233;-77
2023/02/05 06:12:06;;;;;;;19.63;9.73;;;3.90;87.70;;;;;;5023067;28;20699;-76
2023/02/05 06:14:32;;;;;;;21.43;9.30;;;3.90;87.40;;;;;;5024058;28;20658;-77
2023/02/05 06:16:57;;;;;;;26.83;12.30;;;3.80;87.00;;;;;;5017223;28;20683;-76
2023/02/05 06:19:23;;;;;;;24.57;11.60;;;3.70;87.10;;;;;;5024490;28;20671;-76
2023/02/05 06:21:49;;;;;;;22.20;11.00;;;3.60;87.10;;;;;;5021620;28;20708;-76
2023/02/05 06:24:15;;;;;;;14.80;9.23;;;3.50;87.60;;;;;;5025372;28;20209;-75
2023/02/05 06:26:41;;;;;;;19.83;10.17;;;3.60;87.80;;;;;;5028175;28;20432;-76
2023/02/05 06:29:06;;;;;;;23.30;8.17;;;3.60;87.70;;;;;;5018401;28;20214;-76
2023/02/05 06:31:32;;;;;;;15.17;7.90;;;3.70;87.70;;;;;;5019138;28;20206;-76
2023/02/05 06:34:00;;;;;;;15.00;7.37;;;3.70;87.40;;;;;;5019485;28;20196;-76
2023/02/05 06:36:25;;;;;;;19.30;7.70;;;3.60;87.30;;;;;;5020917;28;20197;-75
2023/02/05 06:38:52;;;;;;;14.97;7.13;;;3.60;87.30;;;;;;5015737;28;20436;-75
2023/02/05 06:41:17;;;;;;;17.60;7.50;;;3.60;87.40;;;;;;5021528;28;20221;-76
2023/02/05 06:43:43;;;;;;;13.23;7.00;;;3.50;87.60;;;;;;5024093;28;20508;-78
2023/02/05 06:46:08;;;;;;;16.37;7.00;;;3.50;87.80;;;;;;5030179;28;20227;-77
2023/02/05 06:48:34;;;;;;;18.10;7.10;;;3.60;87.80;;;;;;5016046;28;20213;-77
2023/02/05 06:50:59;;;;;;;14.00;7.90;;;3.60;87.70;;;;;;5018215;28;20646;-77
2023/02/05 06:53:25;;;;;;;15.93;7.90;;;3.60;87.70;;;;;;5018828;28;20559;-77
2023/02/05 06:55:50;;;;;;;13.47;7.37;;;3.60;87.60;;;;;;5026021;28;20193;-77
2023/02/05 06:58:16;;;;;;;14.93;8.33;;;3.60;87.70;;;;;;5013551;28;20220;-76
2023/02/05 07:00:43;;;;;;;16.70;7.60;;;3.70;88.00;;;;;;5014006;28;20712;-77
2023/02/05 07:03:08;;;;;;;14.93;8.03;;;3.70;87.80;;;;;;5013205;28;20535;-76
2023/02/05 07:05:34;;;;;;;15.77;8.20;;;3.70;88.00;;;;;;5013104;28;20634;-77
2023/02/05 07:08:00;;;;;;;25.40;10.20;;;3.80;88.00;;;;;;5014737;28;20293;-74
2023/02/05 07:10:26;;;;;;;13.40;8.33;;;3.80;87.70;;;;;;5012854;28;20252;-76
2023/02/05 07:12:51;;;;;;;18.87;7.80;;;3.80;87.40;;;;;;5010622;28;20452;-77
2023/02/05 07:15:17;;;;;;;19.07;8.40;;;3.80;87.40;;;;;;5013324;28;20644;-76
2023/02/05 07:17:42;;;;;;;16.60;8.10;;;3.80;87.40;;;;;;5013257;28;20189;-76
2023/02/05 07:20:08;;;;;;;18.93;8.10;;;3.80;87.10;;;;;;5010916;28;20240;-77
2023/02/05 07:22:34;;;;;;;21.60;7.50;;;3.80;87.00;;;;;;5008972;28;20295;-76
2023/02/05 07:25:00;;;;;;;22.00;8.83;;;3.80;86.90;;;;;;5008430;28;20421;-76
2023/02/05 07:27:25;;;;;;;17.90;8.97;;;3.80;87.00;;;;;;5012333;28;20661;-75
2023/02/05 07:29:51;;;;;;;17.13;7.80;;;3.80;87.10;;;;;;5014262;28;20255;-76
2023/02/05 07:32:17;;;;;;;17.80;8.00;;;3.80;87.10;;;;;;5014081;28;20220;-75
2023/02/05 07:34:42;;;;;;;17.93;8.50;;;3.80;87.30;;;;;;5016283;28;20182;-75
2023/02/05 07:37:11;;;;;;;13.93;8.30;;;3.80;87.40;;;;;;5015575;28;20178;-76
2023/02/05 07:39:36;;;;;;;24.10;8.43;;;3.80;87.30;;;;;;5018144;28;20605;-74
2023/02/05 07:42:02;;;;;;;21.17;8.50;;;3.70;87.40;;;;;;5012594;28;20547;-76
2023/02/05 07:44:28;;;;;;;18.93;9.10;;;3.60;87.70;;;;;;5015187;28;20664;-75
2023/02/05 07:46:53;;;;;;;20.10;8.53;;;3.70;88.00;;;;;;5011524;28;20186;-76
2023/02/05 07:49:19;;;;;;;19.20;8.90;;;3.70;88.10;;;;;;5021099;28;20288;-75
2023/02/05 07:51:44;;;;;;;16.83;8.57;;;3.90;88.00;;;;;;5021526;28;20524;-75
2023/02/05 07:54:13;;;;;;;26.40;15.20;;;3.90;87.70;;;;;;5015863;28;20178;-75
2023/02/05 07:56:39;;;;;;;15.97;9.10;;;4.00;87.70;;;;;;5018453;28;20577;-74
2023/02/05 07:59:05;;;;;;;21.60;8.97;;;4.00;87.70;;;;;;5019247;28;20444;-75
2023/02/05 08:01:32;;;;;;;18.37;9.30;;;4.10;88.00;;;;;;5017841;28;21148;-76
2023/02/05 08:03:57;;;;;;;29.23;9.47;;;4.20;87.70;;;;;;5022043;28;20432;-75
2023/02/05 08:06:23;;;;;;;19.47;8.70;;;4.30;87.30;;;;;;5029023;28;20454;-76
2023/02/05 08:08:49;;;;;;;16.20;8.80;;;4.30;87.10;;;;;;5016267;28;20705;-75
2023/02/05 08:11:16;;;;;;;14.83;8.17;;;4.40;87.00;;;;;;5018406;28;20448;-76
2023/02/05 08:13:42;;;;;;;15.73;8.37;;;4.40;86.90;;;;;;5020407;28;20530;-76
2023/02/05 08:16:09;;;;;;;15.17;8.33;;;4.50;86.30;;;;;;5014212;28;20437;-74
2023/02/05 08:18:34;;;;;;;22.40;9.00;;;4.50;86.00;;;;;;5021244;28;20459;-74
2023/02/05 08:21:00;;;;;;;16.17;7.53;;;4.60;85.90;;;;;;5020073;28;20412;-76
2023/02/05 08:23:25;;;;;;;20.30;8.60;;;4.50;85.60;;;;;;5022283;28;20194;-75
2023/02/05 08:25:55;;;;;;;19.83;9.30;;;4.50;85.20;;;;;;5015576;28;20185;-74
2023/02/05 08:28:21;;;;;;;15.60;7.43;;;4.40;85.50;;;;;;5017656;28;20205;-74
2023/02/05 08:30:47;;;;;;;16.63;9.03;;;4.40;85.70;;;;;;5010738;28;20421;-74
2023/02/05 08:33:12;;;;;;;20.10;10.60;;;4.50;85.50;;;;;;5014796;28;20436;-75
2023/02/05 08:35:38;;;;;;;17.47;8.30;;;4.60;85.20;;;;;;5009919;28;20657;-75
2023/02/05 08:38:03;;;;;;;28.47;10.80;;;4.60;85.00;;;;;;5020114;28;20185;-74
2023/02/05 08:40:29;;;;;;;18.30;10.97;;;4.60;84.90;;;;;;5017327;28;20587;-74
2023/02/05 08:42:56;;;;;;;22.40;10.23;;;4.60;84.60;;;;;;5013439;28;20240;-70
2023/02/05 08:45:23;;;;;;;23.13;9.80;;;4.60;84.70;;;;;;5012242;28;20182;-71
2023/02/05 08:47:49;;;;;;;28.13;10.77;;;4.60;84.60;;;;;;5018234;28;20493;-72
2023/02/05 08:50:15;;;;;;;19.13;9.97;;;4.70;84.70;;;;;;5026916;28;20522;-71
2023/02/05 08:52:41;;;;;;;28.67;11.37;;;4.70;84.90;;;;;;5027467;28;20480;-69
2023/02/05 08:55:07;;;;;;;18.47;9.20;;;4.80;84.90;;;;;;5021162;28;20181;-70
2023/02/05 08:57:33;;;;;;;17.13;9.40;;;4.80;84.70;;;;;;5020219;28;20204;-70
2023/02/05 08:59:58;;;;;;;19.63;10.03;;;4.80;84.40;;;;;;5015612;28;20428;-70
2023/02/05 09:02:24;;;;;;;18.47;8.70;;;4.80;84.40;;;;;;5016948;28;20822;-71
2023/02/05 09:04:50;;;;;;;18.87;10.00;;;4.90;84.40;;;;;;5016078;28;20190;-70
2023/02/05 09:07:16;;;;;;;22.40;10.57;;;4.80;84.70;;;;;;5023474;28;20667;-71
2023/02/05 09:09:41;;;;;;;22.93;10.30;;;4.80;84.90;;;;;;5012627;28;20293;-69
2023/02/05 09:12:09;;;;;;;18.70;10.00;;;4.90;84.70;;;;;;5017538;28;20797;-70
2023/02/05 09:14:35;;;;;;;16.63;9.40;;;4.90;84.90;;;;;;5023899;28;20182;-70
2023/02/05 09:17:02;;;;;;;17.40;9.93;;;5.00;85.00;;;;;;5011449;28;20432;-69
2023/02/05 09:19:31;;;;;;;18.90;10.50;;;5.10;85.00;;;;;;5013410;28;20555;-70
2023/02/05 09:21:56;;;;;;;22.17;10.23;;;5.10;84.90;;;;;;5020688;28;20463;-69
2023/02/05 09:24:23;;;;;;;22.27;11.27;;;5.20;84.60;;;;;;5017281;28;20782;-75
2023/02/05 09:26:48;;;;;;;18.70;10.77;;;5.20;84.60;;;;;;5033666;28;20280;-77
2023/02/05 09:29:14;;;;;;;21.00;11.57;;;5.20;84.40;;;;;;5023106;28;20515;-76
2023/02/05 09:31:40;;;;;;;15.97;9.00;;;5.20;84.60;;;;;;5024191;28;20206;-74
2023/02/05 09:34:05;;;;;;;21.97;10.13;;;5.20;84.70;;;;;;5022912;28;20254;-75
2023/02/05 09:36:31;;;;;;;18.07;10.33;;;5.10;85.00;;;;;;5020313;28;20428;-76
2023/02/05 09:38:56;;;;;;;19.87;10.10;;;5.10;85.50;;;;;;5018450;28;20362;-75
2023/02/05 09:41:57;;;;;;;20.93;10.80;;;5.10;86.00;;;;;;5010307;28;20222;-74
2023/02/05 09:44:51;;;;;;;20.03;9.70;;;5.00;86.60;;;;;;5012767;28;20256;-74
2023/02/05 09:47:26;;;;;;;18.30;8.97;;;4.90;86.90;;;;;;5016846;28;20511;-75
2023/02/05 09:50:13;;;;;;;20.90;9.83;;;4.80;87.10;;;;;;5017190;28;20870;-73
2023/02/05 09:52:45;;;;;;;18.03;8.63;;;4.80;87.70;;;;;;5015527;28;20484;-76
2023/02/05 09:55:18;;;;;;;31.73;9.33;;;4.80;88.00;;;;;;5022798;28;20474;-75
2023/02/05 09:57:43;;;;;;;25.60;7.90;;;4.80;88.60;;;;;;5010450;28;20539;-76
2023/02/05 10:00:20;;;;;;;18.87;7.10;;;4.90;88.60;;;;;;5019477;28;20504;-76
2023/02/05 10:02:54;;;;;;;13.70;6.80;;;4.80;88.70;;;;;;5015534;28;20602;-75
2023/02/05 10:05:22;;;;;;;15.80;7.57;;;4.90;88.90;;;;;;5019997;28;20944;-75
2023/02/05 10:07:54;;;;;;;13.30;7.00;;;4.90;88.90;;;;;;5014991;28;20425;-76
2023/02/05 10:10:25;;;;;;;19.67;8.10;;;4.90;89.00;;;;;;5016732;28;20491;-75
2023/02/05 10:13:17;;;;;;;15.50;9.20;;;4.90;89.20;;;;;;5020563;28;20455;-76
2023/02/05 10:16:22;;;;;;;18.33;8.03;;;4.90;89.30;;;;;;5009960;28;20515;-76
2023/02/05 10:19:24;;;;;;;16.10;7.97;;;5.00;89.50;;;;;;5010864;28;20431;-76
2023/02/05 10:22:13;;;;;;;18.60;7.97;;;5.00;89.30;;;;;;5022079;28;20474;-77
2023/02/05 10:24:42;;;;;;;14.20;7.60;;;5.00;89.50;;;;;;5018095;28;20433;-75
2023/02/05 10:27:29;;;;;;;16.20;7.37;;;5.10;89.70;;;;;;5020626;28;20443;-75
2023/02/05 10:30:20;;;;;;;15.53;8.30;;;5.20;89.90;;;;;;5024551;28;21052;-74
2023/02/05 10:32:59;;;;;;;21.57;9.13;;;5.20;89.90;;;;;;5015018;28;20464;-76
2023/02/05 10:35:43;;;;;;;13.57;8.67;;;5.30;90.00;;;;;;5023150;28;20427;-75
2023/02/05 10:38:20;;;;;;;18.80;9.30;;;5.40;90.00;;;;;;5021590;28;20439;-75
2023/02/05 10:40:46;;;;;;;17.20;9.20;;;5.40;90.10;;;;;;5019081;28;20459;-74
2023/02/05 10:43:25;;;;;;;17.50;9.50;;;5.40;90.00;;;;;;5012289;28;20472;-75
2023/02/05 10:45:53;;;;;;;20.23;9.00;;;5.40;90.10;;;;;;5014251;28;20481;-75
2023/02/05 10:48:48;;;;;;;20.60;10.73;;;5.30;89.50;;;;;;5014765;28;20494;-75
2023/02/05 10:51:27;;;;;;;19.43;10.70;;;5.40;89.60;;;;;;5008040;28;20957;-74
2023/02/05 10:53:52;;;;;;;27.77;12.13;;;5.60;89.50;;;;;;5010363;28;20843;-75
2023/02/05 10:56:20;;;;;;;22.23;11.43;;;5.60;89.50;;;;;;5017506;28;20420;-75
2023/02/05 10:58:52;;;;;;;20.23;10.77;;;5.60;89.60;;;;;;5022307;28;20201;-75
2023/02/05 11:01:22;;;;;;;18.03;8.70;;;5.70;89.60;;;;;;5016269;28;20477;-75
2023/02/05 11:03:51;;;;;;;22.23;9.40;;;5.70;89.60;;;;;;5024225;28;20427;-75
2023/02/05 11:06:19;;;;;;;19.70;8.80;;;5.70;89.50;;;;;;5019313;28;20440;-75
2023/02/05 11:08:46;;;;;;;16.73;8.30;;;5.70;89.30;;;;;;5018528;28;20472;-76
2023/02/05 11:11:27;;;;;;;14.07;8.07;;;5.70;89.20;;;;;;5015639;28;20491;-76
2023/02/05 11:14:03;;;;;;;15.30;7.00;;;5.60;88.60;;;;;;5011752;28;20424;-76
2023/02/05 11:16:42;;;;;;;17.20;7.40;;;5.60;88.70;;;;;;5012689;28;20575;-75
2023/02/05 11:19:22;;;;;;;16.10;8.27;;;5.70;88.70;;;;;;5014278;28;20417;-76
2023/02/05 11:21:59;;;;;;;16.30;9.23;;;5.60;88.40;;;;;;5015148;28;20495;-76
2023/02/05 11:24:26;;;;;;;20.40;8.60;;;5.60;88.90;;;;;;5019877;28;20447;-75
2023/02/05 11:27:27;;;;;;;23.40;8.17;;;5.50;88.70;;;;;;5022487;28;20484;-74
2023/02/05 11:29:55;;;;;;;18.20;8.80;;;5.40;89.50;;;;;;5017959;28;20498;-75
2023/02/05 11:32:30;;;;;;;18.20;8.40;;;5.40;89.60;;;;;;5019462;28;20478;-76
2023/02/05 11:35:08;;;;;;;13.30;8.30;;;5.50;89.70;;;;;;5025278;28;20412;-75
2023/02/05 11:37:38;;;;;;;19.87;9.30;;;5.50;89.90;;;;;;5025540;28;20459;-76
2023/02/05 11:40:04;;;;;;;21.80;8.60;;;5.50;90.00;;;;;;5033723;28;20408;-75
2023/02/05 11:42:29;;;;;;;17.83;8.80;;;5.50;90.20;;;;;;5030540;28;20470;-75
2023/02/05 11:45:00;;;;;;;14.57;7.60;;;5.50;90.20;;;;;;5021746;28;20968;-75
2023/02/05 11:47:38;;;;;;;16.80;8.67;;;5.60;90.40;;;;;;5032926;28;20213;-76
2023/02/05 11:50:17;;;;;;;20.00;8.60;;;5.60;90.40;;;;;;5019675;28;20460;-76
2023/02/05 11:52:43;;;;;;;21.90;8.37;;;5.60;90.40;;;;;;5018057;28;20814;-75
2023/02/05 11:55:30;;;;;;;19.83;8.27;;;5.60;90.20;;;;;;5031515;28;20427;-75
2023/02/05 11:58:02;;;;;;;19.67;8.60;;;5.60;90.20;;;;;;5022533;28;20433;-75
2023/02/05 12:00:28;;;;;;;23.93;7.03;;;5.60;90.10;;;;;;5033495;28;20420;-76
2023/02/05 12:03:16;;;;;;;19.13;8.70;;;5.60;90.00;;;;;;5014869;28;20452;-76
2023/02/05 12:05:49;;;;;;;20.53;9.10;;;5.60;90.10;;;;;;5021133;28;20428;-75
2023/02/05 12:08:28;;;;;;;17.47;8.63;;;5.60;90.10;;;;;;5015405;28;20850;-76
2023/02/05 12:11:05;;;;;;;20.90;8.73;;;5.60;90.20;;;;;;5005993;28;20884;-75
2023/02/05 12:13:43;;;;;;;17.03;8.27;;;5.60;90.40;;;;;;5008572;28;20451;-75
2023/02/05 12:16:26;;;;;;;16.57;8.40;;;5.60;90.20;;;;;;5022909;28;20429;-74
2023/02/05 12:19:13;;;;;;;21.40;8.17;;;5.70;90.50;;;;;;5026216;28;20424;-75
2023/02/05 12:22:09;;;;;;;18.83;8.43;;;5.70;90.40;;;;;;5017454;28;20457;-75
2023/02/05 12:24:48;;;;;;;22.33;9.03;;;5.70;90.60;;;;;;5013457;28;20774;-75
2023/02/05 12:27:23;;;;;;;19.93;8.97;;;5.80;90.50;;;;;;5015863;28;20431;-76
2023/02/05 12:30:19;;;;;;;17.53;9.03;;;5.80;90.60;;;;;;5023091;28;20483;-75
2023/02/05 12:32:58;;;;;;;27.03;13.10;;;5.90;90.70;;;;;;5019269;28;20544;-74
2023/02/05 12:36:04;;;;;;;22.90;11.53;;;6.00;90.70;;;;;;5026968;28;20417;-75
2023/02/05 12:38:59;;;;;;;25.93;12.53;;;6.00;90.70;;;;;;5006869;28;20430;-75
2023/02/05 12:41:25;;;;;;;31.00;14.43;;;6.00;90.80;;;;;;4957755;28;20470;-73
2023/02/05 12:43:57;;;;;;;29.20;14.30;;;5.90;90.80;;;;;;5020847;28;20425;-75
2023/02/05 12:47:03;;;;;;;25.03;13.90;;;5.60;91.20;;;;;;5014993;28;20614;-76
2023/02/05 12:49:53;;;;;;;28.10;14.90;;;5.40;91.80;;;;;;5011282;28;20548;-75
2023/02/05 12:52:43;;;;;;;28.07;14.20;;;5.30;92.30;;;;;;5007031;28;20452;-75
2023/02/05 12:55:34;;;;;;;29.90;15.23;;;5.30;92.60;;;;;;5013435;28;20419;-74
2023/02/05 12:58:03;;;;;;;27.40;13.87;;;5.20;92.90;;;;;;5006838;28;20451;-75
2023/02/05 13:00:36;;;;;;;20.57;11.60;;;5.20;93.00;;;;;;5035779;28;20403;-75
2023/02/05 13:03:25;;;;;;;20.90;11.77;;;5.20;93.20;;;;;;5028153;28;20468;-76
2023/02/05 13:06:00;;;;;;;31.40;11.70;;;5.30;93.20;;;;;;5026653;28;20834;-74